Time;durP1;ratioP1;P1;durP2;ratioP2;P2;SDS_P1;SDS_P2;PMS_P1;PMS_P2;Temp;Humidity;BMP_temperature;BMP_pressure;BME280_temperature;BME280_humidity;BME280_pressure;Samples;Min_cycle;Max_cycle;Signal;HPM_P1;HPM_P2
2021/08/28 00:01:32;;;;;;;9.60;2.55;;;;;;;;;;5072693;28;20107;-64
2021/08/28 00:03:58;;;;;;;14.55;3.17;;;;;;;;;;5073246;28;20036;-63
2021/08/28 00:06:24;;;;;;;9.60;2.97;;;;;;;;;;5092829;28;20044;-64
2021/08/28 00:08:50;;;;;;;11.40;3.35;;;;;;;;;;5092804;28;20032;-67
2021/08/28 00:11:16;;;;;;;10.90;3.10;;;;;;;;;;5092980;28;20487;-67
2021/08/28 00:13:43;;;;;;;7.85;2.78;;;;;;;;;;5092917;28;20028;-65
2021/08/28 00:16:09;;;;;;;8.60;2.78;;;;;;;;;;5092706;28;20020;-64
2021/08/28 00:18:35;;;;;;;14.48;3.28;;;;;;;;;;5092474;28;20044;-63
2021/08/28 00:21:01;;;;;;;10.55;3.25;;;;;;;;;;5092833;28;20712;-69
2021/08/28 00:23:27;;;;;;;9.52;3.10;;;;;;;;;;5091662;28;20024;-80
2021/08/28 00:25:53;;;;;;;12.10;3.50;;;;;;;;;;5093167;28;20036;-69
2021/08/28 00:28:19;;;;;;;10.75;3.35;;;;;;;;;;5092602;28;20058;-66
2021/08/28 00:30:45;;;;;;;14.77;3.53;;;;;;;;;;5074587;28;20028;-65
2021/08/28 00:33:15;;;;;;;9.95;3.20;;;;;;;;;;5092357;28;20077;-65
2021/08/28 00:35:41;;;;;;;14.75;3.38;;;;;;;;;;5092864;28;20054;-65
2021/08/28 00:38:07;;;;;;;18.58;3.50;;;;;;;;;;5076493;28;20025;-65
2021/08/28 00:40:34;;;;;;;8.85;2.70;;;;;;;;;;5072776;28;20032;-83
2021/08/28 00:43:00;;;;;;;10.48;3.05;;;;;;;;;;5072389;28;20027;-66
2021/08/28 00:45:26;;;;;;;16.02;3.08;;;;;;;;;;5072109;28;20111;-66
2021/08/28 00:47:54;;;;;;;11.52;2.92;;;;;;;;;;5072250;28;20020;-66
2021/08/28 00:50:21;;;;;;;8.55;2.67;;;;;;;;;;5072281;28;20031;-66
2021/08/28 00:52:47;;;;;;;9.60;2.90;;;;;;;;;;5056822;28;20024;-65
2021/08/28 00:55:13;;;;;;;8.73;2.65;;;;;;;;;;5075919;28;20044;-73
2021/08/28 00:57:39;;;;;;;8.63;2.90;;;;;;;;;;5085936;28;20036;-68
2021/08/28 01:00:06;;;;;;;8.40;2.75;;;;;;;;;;5096270;28;20405;-76
2021/08/28 01:02:33;;;;;;;9.93;2.75;;;;;;;;;;5078290;28;20024;-72
2021/08/28 01:05:10;;;;;;;7.82;2.47;;;;;;;;;;5095928;28;20553;-69
2021/08/28 01:07:54;;;;;;;9.35;2.83;;;;;;;;;;5096210;28;20107;-69
2021/08/28 01:10:22;;;;;;;14.35;3.10;;;;;;;;;;5096227;28;20060;-71
2021/08/28 01:12:51;;;;;;;9.55;3.00;;;;;;;;;;5096191;28;20020;-67
2021/08/28 01:15:20;;;;;;;7.68;3.05;;;;;;;;;;5085891;28;20020;-80
2021/08/28 01:17:48;;;;;;;16.15;3.20;;;;;;;;;;5075728;28;20527;-81
2021/08/28 01:20:17;;;;;;;11.48;3.20;;;;;;;;;;5075817;28;20040;-65
2021/08/28 01:22:43;;;;;;;13.77;2.88;;;;;;;;;;5075787;28;20039;-66
2021/08/28 01:25:10;;;;;;;14.75;2.90;;;;;;;;;;5076259;28;20396;-66
2021/08/28 01:28:05;;;;;;;19.13;3.28;;;;;;;;;;5075270;28;20024;-66
2021/08/28 01:30:32;;;;;;;16.55;2.92;;;;;;;;;;5058222;28;20473;-80
2021/08/28 01:32:58;;;;;;;8.73;3.00;;;;;;;;;;5075042;28;20024;-67
2021/08/28 01:35:25;;;;;;;10.45;2.35;;;;;;;;;;5075431;28;20082;-74
2021/08/28 01:37:51;;;;;;;12.23;2.95;;;;;;;;;;5075917;28;20033;-76
2021/08/28 01:40:17;;;;;;;15.82;2.90;;;;;;;;;;5074809;28;20089;-72
2021/08/28 01:42:43;;;;;;;7.07;2.28;;;;;;;;;;5075962;28;20025;-69
2021/08/28 01:45:13;;;;;;;10.30;2.83;;;;;;;;;;5075049;28;20029;-67
2021/08/28 01:47:43;;;;;;;10.07;2.53;;;;;;;;;;5074945;28;20017;-66
2021/08/28 01:50:09;;;;;;;10.75;3.10;;;;;;;;;;5074844;28;20032;-68
2021/08/28 01:52:35;;;;;;;8.25;2.67;;;;;;;;;;5075611;28;20021;-66
2021/08/28 01:55:01;;;;;;;10.90;2.67;;;;;;;;;;5075059;28;20031;-67
2021/08/28 01:57:29;;;;;;;15.20;3.08;;;;;;;;;;5075077;28;20036;-74
2021/08/28 01:59:56;;;;;;;10.35;3.17;;;;;;;;;;5074720;28;20487;-68
2021/08/28 02:02:22;;;;;;;14.02;2.97;;;;;;;;;;5074625;28;20028;-67
2021/08/28 02:04:48;;;;;;;10.52;2.80;;;;;;;;;;5073749;28;20032;-67
2021/08/28 02:07:31;;;;;;;10.90;2.85;;;;;;;;;;5050750;28;20025;-67
2021/08/28 02:10:00;;;;;;;9.90;2.75;;;;;;;;;;5054519;28;20029;-67
2021/08/28 02:12:29;;;;;;;7.45;2.75;;;;;;;;;;5054571;28;20499;-67
2021/08/28 02:15:15;;;;;;;11.20;3.00;;;;;;;;;;5054396;28;20025;-68
2021/08/28 02:17:47;;;;;;;8.75;2.33;;;;;;;;;;5054172;28;20135;-66
2021/08/28 02:20:15;;;;;;;10.73;2.47;;;;;;;;;;5054462;28;20036;-69
2021/08/28 02:22:43;;;;;;;9.23;2.85;;;;;;;;;;5055832;28;20800;-66
2021/08/28 02:25:20;;;;;;;11.38;2.58;;;;;;;;;;5073921;28;20120;-66
2021/08/28 02:27:47;;;;;;;9.98;2.70;;;;;;;;;;5074185;28;20025;-66
2021/08/28 02:30:16;;;;;;;11.80;3.08;;;;;;;;;;5072886;28;20448;-66
2021/08/28 02:32:43;;;;;;;6.97;2.20;;;;;;;;;;5073952;28;20090;-66
2021/08/28 02:35:10;;;;;;;2.85;1.80;;;;;;;;;;5073914;28;20039;-66
2021/08/28 02:37:38;;;;;;;8.43;2.83;;;;;;;;;;5074139;28;20100;-66
2021/08/28 02:40:10;;;;;;;9.52;2.78;;;;;;;;;;5073838;28;20094;-66
2021/08/28 02:42:38;;;;;;;7.10;2.38;;;;;;;;;;5073883;28;20020;-66
2021/08/28 02:45:05;;;;;;;7.78;2.60;;;;;;;;;;5073612;28;20036;-66
2021/08/28 02:47:32;;;;;;;7.47;2.10;;;;;;;;;;5073570;28;20077;-67
2021/08/28 02:49:59;;;;;;;8.90;2.17;;;;;;;;;;5073586;28;20028;-67
2021/08/28 02:52:26;;;;;;;7.00;2.50;;;;;;;;;;5073920;28;20464;-66
2021/08/28 02:54:53;;;;;;;6.45;2.20;;;;;;;;;;5073533;28;20024;-66
2021/08/28 02:57:19;;;;;;;8.80;2.35;;;;;;;;;;5073075;28;20091;-66
2021/08/28 02:59:46;;;;;;;4.72;2.10;;;;;;;;;;5055634;28;20059;-70
2021/08/28 03:02:12;;;;;;;6.97;2.55;;;;;;;;;;5055470;28;20032;-67
2021/08/28 03:04:39;;;;;;;7.28;1.80;;;;;;;;;;5073614;28;20032;-67
2021/08/28 03:07:06;;;;;;;6.63;2.20;;;;;;;;;;5073297;28;20028;-66
2021/08/28 03:09:32;;;;;;;8.60;2.03;;;;;;;;;;5073523;28;20497;-66
2021/08/28 03:11:58;;;;;;;7.78;2.05;;;;;;;;;;5073417;28;20024;-67
2021/08/28 03:14:25;;;;;;;5.55;1.98;;;;;;;;;;5073020;28;20032;-67
2021/08/28 03:16:51;;;;;;;7.45;1.98;;;;;;;;;;5073033;28;20029;-67
2021/08/28 03:19:20;;;;;;;3.92;1.90;;;;;;;;;;5073127;28;20499;-66
2021/08/28 03:21:46;;;;;;;5.07;1.90;;;;;;;;;;5073332;28;20044;-67
2021/08/28 03:24:12;;;;;;;8.07;2.17;;;;;;;;;;5073170;28;20051;-68
2021/08/28 03:26:39;;;;;;;6.47;1.40;;;;;;;;;;5072745;28;20456;-67
2021/08/28 03:29:05;;;;;;;4.13;1.50;;;;;;;;;;5073076;28;20456;-67
2021/08/28 03:31:32;;;;;;;8.32;1.90;;;;;;;;;;5072797;28;20024;-67
2021/08/28 03:33:59;;;;;;;6.43;1.90;;;;;;;;;;5073036;28;20021;-66
2021/08/28 03:36:25;;;;;;;4.00;1.75;;;;;;;;;;5072963;28;20028;-66
2021/08/28 03:38:51;;;;;;;6.95;1.90;;;;;;;;;;5072908;28;20029;-67
2021/08/28 03:41:18;;;;;;;6.88;1.60;;;;;;;;;;5054932;28;20395;-66
2021/08/28 03:43:47;;;;;;;5.43;1.80;;;;;;;;;;5072856;28;20055;-66
2021/08/28 03:46:14;;;;;;;7.15;2.10;;;;;;;;;;5054495;28;20036;-66
2021/08/28 03:48:41;;;;;;;4.25;1.80;;;;;;;;;;5072734;28;20055;-67
2021/08/28 03:51:07;;;;;;;4.40;1.83;;;;;;;;;;5072716;28;20090;-67
2021/08/28 03:53:33;;;;;;;7.20;2.20;;;;;;;;;;5072817;28;20024;-67
2021/08/28 03:55:59;;;;;;;7.35;2.53;;;;;;;;;;5072723;28;20074;-67
2021/08/28 03:58:25;;;;;;;8.95;1.85;;;;;;;;;;5071863;28;20044;-67
2021/08/28 04:00:52;;;;;;;5.57;2.05;;;;;;;;;;5072692;28;20021;-67
2021/08/28 04:03:18;;;;;;;6.38;1.60;;;;;;;;;;5072629;28;20021;-65
2021/08/28 04:05:44;;;;;;;10.80;2.30;;;;;;;;;;5072505;28;20068;-66
2021/08/28 04:08:11;;;;;;;8.35;1.73;;;;;;;;;;5072791;28;20104;-66
2021/08/28 04:10:36;;;;;;;6.20;2.35;;;;;;;;;;5072752;28;20035;-67
2021/08/28 04:13:03;;;;;;;4.45;1.60;;;;;;;;;;5072734;28;20054;-69
2021/08/28 04:15:28;;;;;;;15.07;2.50;;;;;;;;;;5072695;28;20028;-67
2021/08/28 04:17:55;;;;;;;7.15;2.38;;;;;;;;;;5074164;28;20040;-66
2021/08/28 04:20:21;;;;;;;13.85;1.83;;;;;;;;;;5092850;28;20032;-67
2021/08/28 04:22:47;;;;;;;6.00;2.25;;;;;;;;;;5092717;28;20032;-67
2021/08/28 04:25:13;;;;;;;8.35;2.60;;;;;;;;;;5073210;28;20036;-67
2021/08/28 04:27:39;;;;;;;12.40;2.08;;;;;;;;;;5074896;28;20471;-68
2021/08/28 04:30:06;;;;;;;9.48;2.10;;;;;;;;;;5076724;28;20033;-67
2021/08/28 04:32:32;;;;;;;7.53;2.20;;;;;;;;;;5076409;28;20051;-67
2021/08/28 04:34:58;;;;;;;12.02;2.05;;;;;;;;;;5076362;28;20056;-67
2021/08/28 04:37:24;;;;;;;6.85;2.30;;;;;;;;;;5076312;28;20063;-66
2021/08/28 04:39:50;;;;;;;4.70;2.08;;;;;;;;;;5076146;28;20024;-66
2021/08/28 04:42:16;;;;;;;7.68;2.03;;;;;;;;;;5077076;28;20025;-66
2021/08/28 04:44:42;;;;;;;5.90;2.38;;;;;;;;;;5096470;28;20043;-66
2021/08/28 04:47:08;;;;;;;8.07;1.63;;;;;;;;;;5096311;28;20417;-66
2021/08/28 04:49:34;;;;;;;9.15;2.17;;;;;;;;;;5084672;28;20029;-66
2021/08/28 04:52:00;;;;;;;6.82;2.22;;;;;;;;;;5058268;28;20024;-66
2021/08/28 04:54:26;;;;;;;6.68;2.28;;;;;;;;;;5057986;28;20032;-66
2021/08/28 04:56:52;;;;;;;5.50;2.20;;;;;;;;;;5076072;28;20021;-66
2021/08/28 04:59:19;;;;;;;3.33;1.58;;;;;;;;;;5057992;28;20025;-66
2021/08/28 05:01:45;;;;;;;5.85;1.90;;;;;;;;;;5075811;28;20472;-66
2021/08/28 05:04:10;;;;;;;3.17;1.70;;;;;;;;;;5075669;28;20029;-66
2021/08/28 05:06:36;;;;;;;4.10;1.80;;;;;;;;;;5075853;28;20028;-66
2021/08/28 05:09:03;;;;;;;5.50;1.90;;;;;;;;;;5057581;28;20036;-66
2021/08/28 05:11:29;;;;;;;4.78;1.73;;;;;;;;;;5075645;28;20507;-66
2021/08/28 05:13:55;;;;;;;5.28;2.00;;;;;;;;;;5057529;28;20119;-65
2021/08/28 05:16:21;;;;;;;7.95;2.15;;;;;;;;;;5075439;28;20108;-65
2021/08/28 05:18:47;;;;;;;5.05;2.22;;;;;;;;;;5075519;28;20051;-66
2021/08/28 05:21:13;;;;;;;8.88;1.80;;;;;;;;;;5057548;28;20032;-66
2021/08/28 05:23:40;;;;;;;12.63;1.90;;;;;;;;;;5075236;28;20028;-66
2021/08/28 05:26:06;;;;;;;6.72;1.90;;;;;;;;;;5075718;28;20036;-67
2021/08/28 05:28:32;;;;;;;24.05;1.95;;;;;;;;;;5075620;28;20355;-67
2021/08/28 05:30:58;;;;;;;16.45;2.10;;;;;;;;;;5075229;28;20060;-66
2021/08/28 05:33:24;;;;;;;8.20;1.88;;;;;;;;;;5074971;28;20430;-66
2021/08/28 05:35:50;;;;;;;10.27;2.28;;;;;;;;;;5075344;28;20032;-67
2021/08/28 05:38:16;;;;;;;10.88;2.20;;;;;;;;;;5075382;28;20025;-65
2021/08/28 05:40:42;;;;;;;9.55;2.05;;;;;;;;;;5075365;28;20028;-67
2021/08/28 05:43:08;;;;;;;16.77;1.95;;;;;;;;;;5077314;28;20036;-68
2021/08/28 05:45:34;;;;;;;9.48;2.00;;;;;;;;;;5093564;28;20044;-69
2021/08/28 05:48:00;;;;;;;9.45;1.90;;;;;;;;;;5054111;28;20472;-66
2021/08/28 05:50:26;;;;;;;14.70;1.73;;;;;;;;;;5083509;28;20024;-66
2021/08/28 05:52:52;;;;;;;8.65;2.10;;;;;;;;;;5079500;28;20111;-66
2021/08/28 05:55:18;;;;;;;13.30;2.22;;;;;;;;;;5081075;28;20089;-74
2021/08/28 05:57:44;;;;;;;9.75;1.52;;;;;;;;;;5075155;28;20035;-80
2021/08/28 06:00:10;;;;;;;9.13;2.10;;;;;;;;;;5074707;28;20028;-67
2021/08/28 06:02:37;;;;;;;23.20;1.80;;;;;;;;;;5074316;28;20027;-73
2021/08/28 06:05:10;;;;;;;10.27;2.08;;;;;;;;;;5073904;28;20031;-70
2021/08/28 06:07:36;;;;;;;10.88;2.30;;;;;;;;;;5074087;28;20037;-66
2021/08/28 06:10:03;;;;;;;24.80;2.65;;;;;;;;;;5074059;28;20032;-65
2021/08/28 06:12:29;;;;;;;12.13;2.30;;;;;;;;;;5056373;28;20035;-66
2021/08/28 06:14:55;;;;;;;13.43;2.20;;;;;;;;;;5073165;28;20107;-65
2021/08/28 06:17:21;;;;;;;8.30;2.00;;;;;;;;;;5073553;28;20029;-66
2021/08/28 06:19:47;;;;;;;20.30;1.90;;;;;;;;;;5073800;28;20048;-65
2021/08/28 06:22:13;;;;;;;18.17;2.30;;;;;;;;;;5073851;28;20425;-65
2021/08/28 06:24:40;;;;;;;10.15;2.17;;;;;;;;;;5073857;28;20047;-65
2021/08/28 06:27:08;;;;;;;17.30;2.25;;;;;;;;;;5073743;28;20016;-66
2021/08/28 06:29:34;;;;;;;12.73;2.40;;;;;;;;;;5056017;28;20028;-66
2021/08/28 06:31:59;;;;;;;10.57;3.08;;;;;;;;;;5073247;28;20031;-66
2021/08/28 06:34:25;;;;;;;16.48;3.38;;;;;;;;;;5073953;28;20016;-67
2021/08/28 06:36:51;;;;;;;17.70;4.82;;;;;;;;;;5073507;28;20063;-65
2021/08/28 06:39:17;;;;;;;15.85;5.47;;;;;;;;;;5073944;28;20025;-65
2021/08/28 06:41:43;;;;;;;22.00;5.07;;;;;;;;;;5073972;28;20020;-66
2021/08/28 06:44:09;;;;;;;19.60;4.22;;;;;;;;;;5073783;28;20476;-66
2021/08/28 06:46:35;;;;;;;13.45;5.82;;;;;;;;;;5073817;28;20391;-69
2021/08/28 06:49:01;;;;;;;17.48;5.45;;;;;;;;;;5056664;28;20044;-66
2021/08/28 06:51:27;;;;;;;23.63;7.30;;;;;;;;;;5073051;28;20032;-68
2021/08/28 06:53:53;;;;;;;14.48;6.20;;;;;;;;;;5055457;28;21374;-66
2021/08/28 06:56:19;;;;;;;19.77;7.10;;;;;;;;;;5070684;28;20021;-65
2021/08/28 06:58:45;;;;;;;13.93;6.43;;;;;;;;;;5073112;28;20049;-66
2021/08/28 07:01:11;;;;;;;16.35;7.30;;;;;;;;;;5073576;28;20021;-66
2021/08/28 07:03:37;;;;;;;13.77;7.15;;;;;;;;;;5073547;28;20408;-64
2021/08/28 07:06:03;;;;;;;16.17;7.50;;;;;;;;;;5073615;28;20056;-64
2021/08/28 07:08:29;;;;;;;12.25;6.88;;;;;;;;;;5073448;28;20024;-64
2021/08/28 07:10:56;;;;;;;20.00;7.50;;;;;;;;;;5073278;28;20123;-65
2021/08/28 07:13:22;;;;;;;16.08;7.80;;;;;;;;;;5073242;28;20472;-65
2021/08/28 07:15:48;;;;;;;13.77;7.10;;;;;;;;;;5055541;28;20436;-67
2021/08/28 07:18:14;;;;;;;17.67;8.52;;;;;;;;;;5067930;28;20031;-64
2021/08/28 07:20:44;;;;;;;14.15;8.18;;;;;;;;;;5053105;28;20372;-66
2021/08/28 07:23:10;;;;;;;12.80;7.53;;;;;;;;;;5051890;28;20021;-65
2021/08/28 07:25:39;;;;;;;15.27;7.95;;;;;;;;;;5056683;28;20119;-65
2021/08/28 07:28:10;;;;;;;14.95;8.65;;;;;;;;;;5064544;28;20079;-66
2021/08/28 07:30:36;;;;;;;16.63;8.15;;;;;;;;;;5059708;28;20017;-63
2021/08/28 07:33:02;;;;;;;16.73;8.52;;;;;;;;;;5061861;28;20071;-63
2021/08/28 07:35:28;;;;;;;14.73;7.53;;;;;;;;;;5052716;28;20024;-64
2021/08/28 07:37:55;;;;;;;17.15;8.32;;;;;;;;;;5052852;28;20025;-63
2021/08/28 07:40:23;;;;;;;14.00;7.53;;;;;;;;;;5057283;28;20032;-64
2021/08/28 07:42:50;;;;;;;21.13;7.70;;;;;;;;;;5062007;28;20099;-64
2021/08/28 07:45:16;;;;;;;20.23;8.07;;;;;;;;;;5057888;28;20062;-64
2021/08/28 07:47:42;;;;;;;16.80;7.28;;;;;;;;;;5060219;28;20017;-64
2021/08/28 07:50:08;;;;;;;17.70;7.13;;;;;;;;;;5064884;28;20061;-64
2021/08/28 07:52:35;;;;;;;17.08;7.60;;;;;;;;;;5052397;28;20029;-67
2021/08/28 07:55:01;;;;;;;17.02;7.32;;;;;;;;;;5052341;28;20021;-64
2021/08/28 07:57:27;;;;;;;16.58;7.13;;;;;;;;;;5051488;28;20029;-66
2021/08/28 07:59:53;;;;;;;15.65;7.15;;;;;;;;;;5052471;28;20025;-63
2021/08/28 08:02:19;;;;;;;14.65;6.18;;;;;;;;;;5033178;28;20021;-62
2021/08/28 08:04:45;;;;;;;15.77;6.28;;;;;;;;;;5050770;28;20033;-62
2021/08/28 08:07:11;;;;;;;13.43;6.13;;;;;;;;;;5051948;28;20746;-62
2021/08/28 08:09:38;;;;;;;14.90;6.32;;;;;;;;;;5051946;28;20049;-62
2021/08/28 08:12:04;;;;;;;16.98;6.35;;;;;;;;;;5052174;28;20017;-68
2021/08/28 08:14:30;;;;;;;13.82;5.95;;;;;;;;;;5051893;28;20025;-69
2021/08/28 08:16:56;;;;;;;15.70;5.10;;;;;;;;;;5031535;28;20094;-65
2021/08/28 08:19:22;;;;;;;12.95;5.53;;;;;;;;;;5066146;28;20048;-66
2021/08/28 08:21:48;;;;;;;12.90;6.00;;;;;;;;;;5072031;28;20043;-68
2021/08/28 08:24:14;;;;;;;15.25;6.15;;;;;;;;;;5071854;28;20082;-66
2021/08/28 08:26:40;;;;;;;15.07;5.28;;;;;;;;;;5069345;28;20028;-67
2021/08/28 08:29:06;;;;;;;13.10;6.03;;;;;;;;;;5072480;28;20051;-66
2021/08/28 08:31:32;;;;;;;18.95;6.45;;;;;;;;;;5053792;28;20433;-67
2021/08/28 08:33:58;;;;;;;12.20;6.20;;;;;;;;;;5072209;28;20021;-67
2021/08/28 08:36:24;;;;;;;12.13;6.15;;;;;;;;;;5072315;28;20031;-67
2021/08/28 08:38:50;;;;;;;14.65;6.43;;;;;;;;;;5072315;28;20052;-69
2021/08/28 08:41:17;;;;;;;12.68;6.68;;;;;;;;;;5072438;28;20025;-69
2021/08/28 08:43:43;;;;;;;11.25;6.10;;;;;;;;;;5072459;28;20025;-69
2021/08/28 08:46:09;;;;;;;16.38;6.40;;;;;;;;;;5071501;28;20028;-68
2021/08/28 08:48:36;;;;;;;31.67;6.03;;;;;;;;;;5071996;28;20025;-68
2021/08/28 08:51:02;;;;;;;14.00;5.25;;;;;;;;;;5071936;28;20558;-67
2021/08/28 08:53:29;;;;;;;23.55;5.75;;;;;;;;;;5071847;28;20502;-67
2021/08/28 08:55:55;;;;;;;17.33;5.53;;;;;;;;;;5071524;28;20043;-69
2021/08/28 08:58:21;;;;;;;16.70;4.07;;;;;;;;;;5071786;28;20115;-67
2021/08/28 09:00:47;;;;;;;17.85;4.40;;;;;;;;;;5072121;28;20468;-68
2021/08/28 09:03:13;;;;;;;13.80;4.60;;;;;;;;;;5057972;28;20017;-67
2021/08/28 09:05:40;;;;;;;23.38;4.85;;;;;;;;;;5072021;28;20468;-64
2021/08/28 09:08:06;;;;;;;33.17;5.15;;;;;;;;;;5070722;28;20531;-64
2021/08/28 09:10:32;;;;;;;59.42;5.93;;;;;;;;;;5072355;28;20028;-64
2021/08/28 09:13:11;;;;;;;30.50;5.13;;;;;;;;;;5073170;28;20024;-66
2021/08/28 09:15:42;;;;;;;50.95;5.35;;;;;;;;;;5074853;28;20031;-65
2021/08/28 09:18:08;;;;;;;41.65;4.75;;;;;;;;;;5077288;28;20047;-64
2021/08/28 09:20:34;;;;;;;31.42;4.75;;;;;;;;;;5094762;28;20035;-67
2021/08/28 09:23:11;;;;;;;21.88;4.30;;;;;;;;;;5076877;28;20030;-66
2021/08/28 09:25:38;;;;;;;16.98;4.45;;;;;;;;;;5094722;28;20474;-65
2021/08/28 09:28:06;;;;;;;17.65;3.60;;;;;;;;;;5095003;28;20024;-65
2021/08/28 09:30:36;;;;;;;20.90;4.13;;;;;;;;;;5094998;28;20028;-65
2021/08/28 09:33:06;;;;;;;15.95;3.60;;;;;;;;;;5094824;28;20089;-65
2021/08/28 09:35:36;;;;;;;14.73;3.72;;;;;;;;;;5095493;28;20468;-64
2021/08/28 09:38:05;;;;;;;18.00;3.40;;;;;;;;;;5095494;28;20158;-65
2021/08/28 09:40:32;;;;;;;11.63;4.05;;;;;;;;;;5095195;28;20020;-64
2021/08/28 09:43:00;;;;;;;16.30;3.88;;;;;;;;;;5095405;28;20375;-66
2021/08/28 09:45:26;;;;;;;10.43;3.47;;;;;;;;;;5077016;28;20036;-66
2021/08/28 09:47:53;;;;;;;11.77;3.40;;;;;;;;;;5095490;28;20022;-64
2021/08/28 09:50:45;;;;;;;12.20;3.50;;;;;;;;;;5077321;28;20476;-64
2021/08/28 09:53:17;;;;;;;10.05;3.15;;;;;;;;;;5069487;28;20048;-66
2021/08/28 09:55:43;;;;;;;;;;;;;;;;;;5075290;28;20035;-65
2021/08/28 09:58:10;;;;;;;14.02;3.28;;;;;;;;;;5075337;28;19904;-64
2021/08/28 10:00:44;;;;;;;7.10;3.08;;;;;;;;;;5057009;28;20032;-64
2021/08/28 10:03:10;;;;;;;8.90;3.40;;;;;;;;;;5074565;28;20426;-65
2021/08/28 10:05:37;;;;;;;9.93;3.17;;;;;;;;;;5074511;28;20430;-64
2021/08/28 10:08:08;;;;;;;9.80;3.25;;;;;;;;;;5074573;28;20469;-65
2021/08/28 10:10:38;;;;;;;10.70;3.60;;;;;;;;;;5084528;28;20403;-65
2021/08/28 10:13:04;;;;;;;10.18;3.13;;;;;;;;;;5094699;28;20103;-64
2021/08/28 10:15:31;;;;;;;8.50;2.97;;;;;;;;;;5094762;28;20355;-65
2021/08/28 10:17:59;;;;;;;8.98;3.35;;;;;;;;;;5094603;28;20084;-64
2021/08/28 10:20:26;;;;;;;10.40;3.22;;;;;;;;;;5094725;28;20467;-66
2021/08/28 10:22:54;;;;;;;7.07;3.25;;;;;;;;;;5094666;28;20024;-65
2021/08/28 10:25:20;;;;;;;8.07;2.83;;;;;;;;;;5093158;28;20040;-65
2021/08/28 10:27:47;;;;;;;10.63;3.10;;;;;;;;;;5075179;28;20082;-64
2021/08/28 10:30:13;;;;;;;7.90;2.97;;;;;;;;;;5074290;28;20071;-65
2021/08/28 10:32:40;;;;;;;7.68;2.50;;;;;;;;;;5074417;28;20464;-65
2021/08/28 10:35:06;;;;;;;8.15;3.20;;;;;;;;;;5073855;28;20531;-66
2021/08/28 10:37:32;;;;;;;5.82;2.92;;;;;;;;;;5074051;28;20356;-65
2021/08/28 10:39:59;;;;;;;5.07;2.35;;;;;;;;;;5073811;28;20498;-65
2021/08/28 10:42:26;;;;;;;7.10;3.22;;;;;;;;;;5074114;28;20020;-65
2021/08/28 10:44:53;;;;;;;6.50;3.15;;;;;;;;;;5073699;28;20028;-65
2021/08/28 10:47:23;;;;;;;10.02;3.30;;;;;;;;;;5088984;28;20043;-64
2021/08/28 10:49:51;;;;;;;5.22;2.78;;;;;;;;;;5080268;28;20110;-65
2021/08/28 10:52:21;;;;;;;8.05;3.22;;;;;;;;;;5073707;28;20016;-65
2021/08/28 10:55:03;;;;;;;6.72;2.83;;;;;;;;;;5073581;28;20040;-65
2021/08/28 10:57:29;;;;;;;7.80;3.08;;;;;;;;;;5073677;28;20021;-65
2021/08/28 10:59:59;;;;;;;8.32;2.80;;;;;;;;;;5073765;28;20025;-67
2021/08/28 11:02:45;;;;;;;6.70;3.10;;;;;;;;;;5083172;28;20256;-64
2021/08/28 11:05:15;;;;;;;6.82;2.58;;;;;;;;;;5075293;28;20044;-65
2021/08/28 11:07:42;;;;;;;6.97;2.78;;;;;;;;;;5093999;28;20452;-65
2021/08/28 11:10:10;;;;;;;6.78;2.55;;;;;;;;;;5093412;28;20032;-65
2021/08/28 11:12:45;;;;;;;7.60;2.90;;;;;;;;;;5093802;28;20499;-64
2021/08/28 11:15:30;;;;;;;11.20;3.35;;;;;;;;;;5093561;28;20032;-65
2021/08/28 11:18:03;;;;;;;8.40;2.70;;;;;;;;;;5091877;28;20341;-64
2021/08/28 11:20:34;;;;;;;5.95;2.65;;;;;;;;;;5075431;28;20031;-66
2021/08/28 11:23:03;;;;;;;14.15;2.50;;;;;;;;;;5093368;28;20349;-65
2021/08/28 11:25:30;;;;;;;8.23;2.45;;;;;;;;;;5093041;28;20127;-65
2021/08/28 11:27:57;;;;;;;5.38;2.40;;;;;;;;;;5093405;28;20024;-65
2021/08/28 11:30:41;;;;;;;10.32;2.60;;;;;;;;;;5093562;28;20023;-65
2021/08/28 11:33:11;;;;;;;7.60;3.10;;;;;;;;;;5093166;28;20371;-67
2021/08/28 11:35:41;;;;;;;10.40;2.97;;;;;;;;;;5092950;28;20518;-66
2021/08/28 11:38:08;;;;;;;7.47;2.53;;;;;;;;;;5059245;28;20491;-65
2021/08/28 11:40:35;;;;;;;7.78;2.63;;;;;;;;;;5072700;28;20079;-66
2021/08/28 11:43:02;;;;;;;9.68;2.90;;;;;;;;;;5073051;28;20052;-64
2021/08/28 11:45:29;;;;;;;11.32;2.92;;;;;;;;;;5072679;28;20057;-57
2021/08/28 11:47:56;;;;;;;61.53;3.38;;;;;;;;;;5072430;28;20123;-59
2021/08/28 11:50:28;;;;;;;26.35;3.20;;;;;;;;;;5072384;28;20030;-62
2021/08/28 11:52:54;;;;;;;18.45;3.60;;;;;;;;;;5071347;28;20483;-61
2021/08/28 11:55:23;;;;;;;10.65;2.60;;;;;;;;;;5072377;28;20032;-61
2021/08/28 11:58:06;;;;;;;14.27;2.70;;;;;;;;;;5071861;28;20016;-61
2021/08/28 12:00:33;;;;;;;19.00;3.15;;;;;;;;;;5071986;28;20031;-66
2021/08/28 12:02:59;;;;;;;14.73;2.90;;;;;;;;;;5054135;28;20066;-66
2021/08/28 12:05:26;;;;;;;18.85;2.60;;;;;;;;;;5054276;28;20047;-69
2021/08/28 12:07:52;;;;;;;15.68;3.15;;;;;;;;;;5071522;28;20016;-65
2021/08/28 12:10:19;;;;;;;8.77;2.60;;;;;;;;;;5071636;28;20024;-65
2021/08/28 12:12:45;;;;;;;17.48;2.65;;;;;;;;;;5072665;28;20028;-66
2021/08/28 12:15:11;;;;;;;13.15;3.20;;;;;;;;;;5072382;28;20111;-65
2021/08/28 12:17:37;;;;;;;16.52;2.88;;;;;;;;;;5064908;28;20028;-65
2021/08/28 12:20:03;;;;;;;16.52;2.78;;;;;;;;;;5081722;28;20070;-66
2021/08/28 12:22:29;;;;;;;11.50;2.65;;;;;;;;;;5077765;28;20407;-65
2021/08/28 12:24:55;;;;;;;16.52;2.63;;;;;;;;;;5075650;28;21003;-68
2021/08/28 12:27:22;;;;;;;21.35;2.80;;;;;;;;;;5063242;28;20024;-70
2021/08/28 12:29:49;;;;;;;8.73;2.40;;;;;;;;;;5084159;28;20022;-66
2021/08/28 12:32:17;;;;;;;10.75;2.70;;;;;;;;;;5083496;28;20031;-66
2021/08/28 12:34:50;;;;;;;9.23;2.70;;;;;;;;;;5044668;28;20028;-67
2021/08/28 12:37:18;;;;;;;8.18;2.45;;;;;;;;;;5078641;28;20028;-67
2021/08/28 12:39:47;;;;;;;6.97;2.33;;;;;;;;;;5080426;28;20025;-67
2021/08/28 12:42:14;;;;;;;8.75;2.30;;;;;;;;;;5072224;28;20017;-67
2021/08/28 12:44:43;;;;;;;12.48;2.58;;;;;;;;;;5072117;28;20040;-68
2021/08/28 12:47:10;;;;;;;8.02;2.10;;;;;;;;;;5054123;28;20024;-68
2021/08/28 12:49:36;;;;;;;8.13;2.33;;;;;;;;;;5075785;28;20036;-70
2021/08/28 12:52:02;;;;;;;6.72;2.28;;;;;;;;;;5075474;28;20027;-67
2021/08/28 12:54:36;;;;;;;6.85;2.40;;;;;;;;;;5075940;28;20380;-68
2021/08/28 12:57:08;;;;;;;12.35;2.75;;;;;;;;;;5075785;28;20047;-67
2021/08/28 12:59:49;;;;;;;5.88;1.95;;;;;;;;;;5075684;28;20056;-67
2021/08/28 13:02:23;;;;;;;6.88;2.45;;;;;;;;;;5055681;28;20028;-68
2021/08/28 13:04:49;;;;;;;5.07;2.42;;;;;;;;;;5075520;28;20111;-67
2021/08/28 13:07:19;;;;;;;12.05;2.83;;;;;;;;;;5075186;28;20048;-67
2021/08/28 13:09:48;;;;;;;13.60;2.60;;;;;;;;;;5072963;28;20020;-67
2021/08/28 13:12:14;;;;;;;7.25;2.40;;;;;;;;;;5075377;28;20021;-67
2021/08/28 13:14:53;;;;;;;8.65;2.03;;;;;;;;;;5075728;28;20029;-67
2021/08/28 13:17:23;;;;;;;85.22;3.65;;;;;;;;;;5075584;28;20036;-67
2021/08/28 13:19:58;;;;;;;22.00;2.40;;;;;;;;;;5057430;28;20044;-68
2021/08/28 13:22:24;;;;;;;20.63;3.08;;;;;;;;;;5074301;28;20028;-66
2021/08/28 13:24:50;;;;;;;26.52;3.05;;;;;;;;;;5075266;28;20360;-67
2021/08/28 13:27:16;;;;;;;23.40;3.20;;;;;;;;;;5075513;28;20032;-68
2021/08/28 13:29:42;;;;;;;13.05;2.95;;;;;;;;;;5075441;28;20052;-67
2021/08/28 13:32:08;;;;;;;20.45;3.05;;;;;;;;;;5057376;28;20368;-67
2021/08/28 13:34:38;;;;;;;16.95;2.88;;;;;;;;;;5057341;28;20025;-67
2021/08/28 13:37:05;;;;;;;18.10;2.97;;;;;;;;;;5074823;28;20401;-67
2021/08/28 13:39:31;;;;;;;19.63;3.15;;;;;;;;;;5074131;28;20526;-67
2021/08/28 13:41:57;;;;;;;9.18;2.80;;;;;;;;;;5075496;28;20027;-67
2021/08/28 13:44:23;;;;;;;16.52;2.95;;;;;;;;;;5057113;28;20026;-66
2021/08/28 13:46:49;;;;;;;8.98;2.90;;;;;;;;;;5074938;28;20483;-67
2021/08/28 13:49:15;;;;;;;20.00;2.97;;;;;;;;;;5057178;28;20051;-66
2021/08/28 13:51:41;;;;;;;14.50;3.05;;;;;;;;;;5075246;28;20158;-67
2021/08/28 13:54:07;;;;;;;16.55;2.90;;;;;;;;;;5077519;28;20162;-68
2021/08/28 13:56:33;;;;;;;16.35;2.70;;;;;;;;;;5074745;28;20099;-67
2021/08/28 13:58:59;;;;;;;19.45;3.03;;;;;;;;;;5074903;28;20505;-67
2021/08/28 14:01:25;;;;;;;19.52;2.80;;;;;;;;;;5074873;28;20364;-68
2021/08/28 14:03:51;;;;;;;29.38;3.25;;;;;;;;;;5074918;28;20035;-67
2021/08/28 14:06:17;;;;;;;13.75;3.10;;;;;;;;;;5080465;28;20391;-67
2021/08/28 14:08:43;;;;;;;15.52;2.95;;;;;;;;;;5074559;28;20062;-69
2021/08/28 14:11:09;;;;;;;10.68;2.53;;;;;;;;;;5081572;28;20719;-73
2021/08/28 14:13:35;;;;;;;13.60;2.55;;;;;;;;;;5074822;28;20021;-63
2021/08/28 14:16:01;;;;;;;10.77;2.40;;;;;;;;;;5074422;28;20024;-66
2021/08/28 14:18:30;;;;;;;10.10;2.60;;;;;;;;;;5080409;28;20050;-65
2021/08/28 14:20:56;;;;;;;7.70;2.80;;;;;;;;;;5086623;28;20337;-63
2021/08/28 14:23:23;;;;;;;11.82;2.17;;;;;;;;;;5055956;28;20045;-65
2021/08/28 14:25:49;;;;;;;13.20;2.40;;;;;;;;;;5074531;28;20111;-65
2021/08/28 14:28:15;;;;;;;7.20;2.45;;;;;;;;;;5074163;28;20016;-65
2021/08/28 14:30:41;;;;;;;10.63;2.55;;;;;;;;;;5078833;28;20031;-65
2021/08/28 14:33:07;;;;;;;8.60;2.30;;;;;;;;;;5077795;28;20020;-67
2021/08/28 14:35:33;;;;;;;6.88;2.78;;;;;;;;;;5087129;28;20028;-65
2021/08/28 14:37:59;;;;;;;5.47;2.40;;;;;;;;;;5078454;28;20029;-67